Little Neck, NY (11362)

2:09 PM EST on December 18, 2014 (GMT -0500)
Floral Park, The Original 11001 Wx Site | Change Station
CLOSE
Current Station
Personal Weather Station
Location: Floral Park, NY
Elevation: 103 ft
Nearby Weather Stations

Elev 103 ft 40.73 °N, 73.71 °W | Updated 8 seconds ago

Mostly Cloudy
Mostly Cloudy
42.2 °F
Feels Like 38 °F
N
7.0
Wind Variable Wind from North
Gusts 13.0 mph

Today
High -- | Low -- °F
--% Chance of Precip.
Yesterday
High -- | Low -- °F
Precip. -- in
7:13 AM 4:29 PM
Waning Crescent, 13% visible
Pressure 29.93 in
Visibility 10.0 miles
Clouds Mostly Cloudy 4200 ft
Windchill 38 °F
Dew Point 28 °F
Humidity 56%
Rainfall 0.00 in
Snow Depth Not available.
UV 1 out of 12
Pollen .10 out of 12
Air Quality Not available.
Flu Activity Not available.
METAR KLGA 181851Z 29013G25KT 10SM BKN042 05/M04 A2993 RMK AO2 SLP134 T00501044

More Conditions Fewer Conditions

Pressure 29.93 in
Visibility 10.0 miles
Clouds Mostly Cloudy 4200 ft
Windchill 38 °F
Dew Point 28 °F
Humidity 56%
Rainfall 0.00 in
Snow Depth Not available.
UV 1 out of 12
Pollen .10 out of 12
Air Quality Not available.
Flu Activity Not available.
METAR KLGA 181851Z 29013G25KT 10SM BKN042 05/M04 A2993 RMK AO2 SLP134 T00501044

More Conditions Fewer Conditions

10-Day Weather Forecast

Almanac

Astronomy

Dec. 18, 2014 Rise Set
Actual Time
Civil Twilight
Nautical Twilight
Astronomical Twilight
Moon
Length of Visible Light
Length of Day
Tomorrow will be .
, % of the Moon is Illuminated

Today's Extremes

State Highs State Lows

Community

WunderPhotos

Upload Photos

1,778,982 photos uploaded!

WunderBlogs® & News

Nearby

Air Quality

  Air Quality AQ Index Pollutant
Not available.

Snow Depth

Station Depth Elevation

Earthquake Activity

City Distance Mag. Time & Date
Minimum magnitude displayed is 2.5.

Coastal Water Temperatures

Place Temperature

Nearby Weather Stations